CPX661 Details

Departure: Tampa International Airport (KTPA)
Arrival: Miami International Airport (KMIA) at N/A
Route: GANDY8 SABEE CYY CYY9
Notes:


Current Weather Information
KTPA 251153Z 02004KT 10SM FEW280 27/23 A2996 RMK AO2 SLP143 T02670233 10283 20261 53012 $
KMIA 251153Z 20005KT 10SM FEW020 FEW045 SCT250 27/24 A2994 RMK AO2 SLP138 CB DSNT E-SE MOV NE 70003 T02720239 10278 20267 53010